To NAV CANADA Home Page Login to a new session Search on AWWS site Disclaimer Vers la page française équivalente Tips FAQ What's new on the site To the Forecasts and Observations / NOTAM section To "File a Flight Plan" website Publications and other links Update of the User's profile FIC Telephone Numbers My Weather Data Folder Route Weather Data Regional Weather Data Local Weather Data To the Forecasts and Observations / NOTAM section
Request Generated 11/13/2018 at 18:28:02 UTC . Weather information available at that time is displayed.

METAR/TAF

WINDSOR/ON    

METAR CYQG 131800Z AUTO 28013G19KT 9SM SCT028 BKN041 OVC050 01/M04 A3024 RMK SLP249=
SPECI CYQG 131733Z AUTO 28011G18KT 9SM BKN026 BKN031 BKN055 01/M04 A3024 RMK SLP249=
SPECI CYQG 131730Z AUTO 28013G20KT 9SM BKN024 BKN031 01/M05 A3024 RMK SLP249=
SPECI CYQG 131728Z AUTO 29014G20KT 9SM BKN026 BKN031 01/M05 A3024 RMK SLP249=
METAR CYQG 131700Z AUTO 30009G18KT 9SM BKN022 00/M04 A3024 RMK SLP249=
SPECI CYQG 131648Z AUTO 28013G18KT 9SM BKN020 01/M04 A3024 RMK SLP249=
SPECI CYQG 131619Z AUTO 31011G17KT 9SM SCT018 00/M03 A3024 RMK SLP249=
METAR CYQG 131600Z AUTO 31011G20KT 9SM BKN018 01/M03 A3023 RMK SLP247=

TAF CYQG 131738Z 1318/1418 29012G22KT P6SM BKN030 TEMPO 1318/1319
BKN020
FM140000 29010KT P6SM FEW040
BECMG 1402/1404 29007KT
BECMG 1409/1411 VRB03KT
FM141500 32008KT P6SM SKC
RMK FCST BASED ON AUTO OBS. NXT FCST BY 140000Z=
Your time UTC time
Weather data provided by Environment Canada and NAV CANADA